Time;durP1;ratioP1;P1;durP2;ratioP2;P2;SDS_P1;SDS_P2;PMS_P1;PMS_P2;Temp;Humidity;BMP_temperature;BMP_pressure;BME280_temperature;BME280_humidity;BME280_pressure;Samples;Min_cycle;Max_cycle;Signal;HPM_P1;HPM_P2
2021/04/11 00:00:27;;;;;;;1.80;1.00;;;16.20;49.50;;;;;;6246634;28;20037;-75
2021/04/11 00:03:28;;;;;;;5.57;1.25;;;16.20;49.90;;;;;;6245668;28;20083;-75
2021/04/11 00:06:29;;;;;;;1.85;1.17;;;16.20;50.10;;;;;;6227852;28;20108;-75
2021/04/11 00:09:30;;;;;;;3.35;1.60;;;16.20;50.30;;;;;;6236119;28;20140;-75
2021/04/11 00:12:31;;;;;;;4.65;1.40;;;16.20;50.50;;;;;;6228137;28;20041;-75
2021/04/11 00:15:32;;;;;;;4.57;1.20;;;16.20;50.40;;;;;;6245505;28;20041;-76
2021/04/11 00:18:34;;;;;;;2.35;1.27;;;16.20;50.50;;;;;;6244954;28;20041;-75
2021/04/11 00:21:35;;;;;;;3.45;1.63;;;16.20;50.50;;;;;;6244965;28;20037;-74
2021/04/11 00:24:36;;;;;;;2.30;1.27;;;16.10;50.40;;;;;;6244617;28;20495;-76
2021/04/11 00:27:37;;;;;;;3.65;1.35;;;16.20;50.50;;;;;;6212532;28;20037;-76
2021/04/11 00:30:38;;;;;;;3.15;1.58;;;16.10;50.50;;;;;;6234771;28;20050;-76
2021/04/11 00:33:43;;;;;;;3.85;1.55;;;16.10;50.60;;;;;;6225714;28;20120;-76
2021/04/11 00:36:44;;;;;;;5.82;1.70;;;16.10;50.30;;;;;;6219784;28;20473;-76
2021/04/11 00:39:45;;;;;;;7.00;1.50;;;16.10;50.50;;;;;;6188112;28;20065;-76
2021/04/11 00:42:51;;;;;;;2.63;1.38;;;16.00;50.60;;;;;;6203377;28;20428;-76
2021/04/11 00:46:14;;;;;;;1.27;0.93;;;16.10;50.80;;;;;;6189265;28;20048;-76
2021/04/11 00:49:37;;;;;;;3.28;1.25;;;16.00;50.80;;;;;;6236834;28;20042;-76
2021/04/11 00:52:43;;;;;;;1.75;0.93;;;16.10;50.90;;;;;;6211591;28;20041;-78
2021/04/11 00:55:44;;;;;;;1.40;0.80;;;16.10;51.00;;;;;;6214913;28;20041;-76
2021/04/11 00:58:45;;;;;;;1.80;1.02;;;16.10;51.40;;;;;;6232190;28;20478;-76
2021/04/11 01:01:47;;;;;;;3.83;1.00;;;16.00;51.50;;;;;;6207384;28;20034;-76
2021/04/11 01:04:48;;;;;;;4.68;0.77;;;16.00;51.60;;;;;;6222807;28;20029;-76
2021/04/11 01:07:50;;;;;;;1.80;1.00;;;16.00;51.60;;;;;;6231717;28;20389;-76
2021/04/11 01:11:05;;;;;;;2.70;0.80;;;15.90;51.70;;;;;;6255306;28;20372;-76
2021/04/11 01:14:08;;;;;;;5.43;1.08;;;15.90;52.00;;;;;;6246678;28;20045;-76
2021/04/11 01:17:18;;;;;;;5.43;1.10;;;15.90;52.00;;;;;;6236895;28;20041;-76
2021/04/11 01:20:21;;;;;;;1.05;0.90;;;15.90;52.10;;;;;;6250627;28;20030;-76
2021/04/11 01:23:40;;;;;;;1.45;0.90;;;15.90;52.10;;;;;;6248483;28;20203;-77
2021/04/11 01:26:42;;;;;;;2.00;0.90;;;15.80;52.20;;;;;;6230701;28;20033;-75
2021/04/11 01:29:45;;;;;;;3.80;1.05;;;15.80;52.10;;;;;;6249658;28;20123;-75
2021/04/11 01:32:49;;;;;;;1.38;0.75;;;15.80;52.00;;;;;;6232160;28;20045;-75
2021/04/11 01:35:52;;;;;;;3.03;0.82;;;15.80;52.00;;;;;;6249038;28;20038;-77
2021/04/11 01:38:55;;;;;;;1.42;0.90;;;15.80;52.00;;;;;;6232363;28;20045;-75
2021/04/11 01:41:56;;;;;;;3.63;1.23;;;15.80;51.80;;;;;;6232665;28;20515;-76
2021/04/11 01:44:58;;;;;;;4.55;1.73;;;15.80;51.80;;;;;;6249809;28;20044;-77
2021/04/11 01:48:02;;;;;;;4.28;1.88;;;15.80;51.70;;;;;;6231590;28;20360;-76
2021/04/11 01:51:08;;;;;;;9.65;2.25;;;15.80;51.30;;;;;;6230298;28;20042;-76
2021/04/11 01:54:14;;;;;;;8.43;1.75;;;15.70;51.00;;;;;;6232710;28;20033;-76
2021/04/11 01:57:30;;;;;;;4.93;2.15;;;15.60;50.70;;;;;;6249151;28;20029;-76
2021/04/11 02:00:58;;;;;;;4.20;1.70;;;15.50;50.60;;;;;;6231176;28;20037;-76
2021/04/11 02:04:04;;;;;;;11.50;1.90;;;15.40;50.50;;;;;;6224135;28;20037;-77
2021/04/11 02:07:10;;;;;;;4.88;2.05;;;15.30;50.60;;;;;;6204899;28;20163;-77
2021/04/11 02:10:19;;;;;;;7.47;2.17;;;15.30;50.60;;;;;;6246405;28;20080;-77
2021/04/11 02:13:41;;;;;;;8.10;2.20;;;15.10;50.70;;;;;;6233071;28;20045;-77
2021/04/11 02:16:56;;;;;;;10.95;2.03;;;15.10;51.00;;;;;;6229822;28;20172;-75
2021/04/11 02:19:58;;;;;;;3.75;2.08;;;15.00;51.10;;;;;;6230277;28;20119;-75
2021/04/11 02:23:10;;;;;;;5.32;1.73;;;14.90;51.20;;;;;;6198015;28;20041;-76
2021/04/11 02:26:13;;;;;;;9.00;2.30;;;14.80;51.40;;;;;;6224900;28;20025;-76
2021/04/11 02:29:19;;;;;;;6.40;1.80;;;14.80;51.40;;;;;;6224524;28;20041;-76
2021/04/11 02:32:22;;;;;;;10.88;2.50;;;14.80;51.60;;;;;;6222530;28;20048;-76
2021/04/11 02:35:27;;;;;;;18.90;3.05;;;14.70;51.60;;;;;;6213780;28;20117;-76
2021/04/11 02:38:30;;;;;;;4.85;1.70;;;14.70;51.60;;;;;;6232868;28;20080;-78
2021/04/11 02:41:32;;;;;;;6.03;2.47;;;14.70;51.60;;;;;;6249440;28;20052;-75
2021/04/11 02:44:42;;;;;;;8.82;2.20;;;14.60;51.80;;;;;;6265855;28;20562;-75
2021/04/11 02:47:44;;;;;;;5.97;1.98;;;14.60;52.00;;;;;;6230130;28;20037;-75
2021/04/11 02:50:45;;;;;;;10.45;3.03;;;14.60;52.10;;;;;;6231157;28;20124;-76
2021/04/11 02:53:52;;;;;;;6.57;2.47;;;14.50;52.30;;;;;;6215366;28;20034;-75
2021/04/11 02:57:04;;;;;;;5.18;2.05;;;14.50;52.30;;;;;;6215523;28;20029;-76
2021/04/11 03:00:13;;;;;;;3.30;1.73;;;14.50;52.20;;;;;;6246936;28;20033;-76
2021/04/11 03:03:17;;;;;;;7.03;2.75;;;14.50;52.30;;;;;;6231029;28;20029;-77
2021/04/11 03:06:21;;;;;;;4.43;1.60;;;14.40;52.50;;;;;;6236294;28;20128;-76
2021/04/11 03:09:43;;;;;;;7.30;2.25;;;14.40;52.40;;;;;;6242423;28;20069;-74
2021/04/11 03:12:54;;;;;;;5.22;2.10;;;14.40;52.40;;;;;;6269198;28;20356;-76
2021/04/11 03:20:23;;;;;;;3.83;2.00;;;14.40;52.50;;;;;;6272735;28;20037;-76
2021/04/11 03:23:32;;;;;;;7.75;1.63;;;14.40;52.60;;;;;;6266822;28;20048;-77
2021/04/11 03:27:04;;;;;;;2.55;1.60;;;14.40;52.70;;;;;;6259169;28;20041;-76
2021/04/11 03:30:21;;;;;;;6.28;1.63;;;14.40;52.80;;;;;;6271423;28;20060;-77
2021/04/11 03:33:23;;;;;;;5.95;1.33;;;14.50;52.70;;;;;;6237819;28;20033;-76
2021/04/11 03:36:25;;;;;;;8.05;1.90;;;14.50;52.80;;;;;;6254887;28;20406;-76
2021/04/11 03:39:29;;;;;;;2.55;1.17;;;14.60;52.80;;;;;;6258456;28;20120;-76
2021/04/11 03:42:33;;;;;;;0.63;0.52;;;14.60;52.80;;;;;;6256046;28;20415;-76
2021/04/11 03:45:36;;;;;;;1.85;0.63;;;14.60;52.70;;;;;;6256156;28;20041;-76
2021/04/11 03:48:54;;;;;;;4.93;1.02;;;14.70;52.60;;;;;;6253740;28;20452;-76
2021/04/11 03:52:01;;;;;;;9.07;1.08;;;14.70;52.40;;;;;;6238882;28;20048;-76
2021/04/11 03:55:11;;;;;;;3.55;1.02;;;14.80;52.40;;;;;;6255854;28;20032;-76
2021/04/11 03:58:22;;;;;;;;;;;14.80;52.30;;;;;;6256185;28;20435;-76
2021/04/11 04:01:49;;;;;;;1.75;0.80;;;14.80;52.20;;;;;;6272037;28;19913;-78
2021/04/11 04:05:08;;;;;;;0.82;0.57;;;14.90;52.00;;;;;;6227247;28;20041;-75
2021/04/11 04:08:15;;;;;;;1.90;0.85;;;14.90;52.00;;;;;;6236932;28;20050;-75
2021/04/11 04:11:20;;;;;;;1.30;1.00;;;14.80;51.90;;;;;;6226392;28;20042;-76
2021/04/11 04:14:43;;;;;;;1.58;0.90;;;14.90;51.90;;;;;;6219517;28;20538;-75
2021/04/11 04:17:51;;;;;;;1.63;1.00;;;14.90;52.00;;;;;;6226690;28;20052;-75
2021/04/11 04:21:13;;;;;;;0.45;0.40;;;14.90;51.90;;;;;;6212939;28;20053;-77
2021/04/11 04:24:34;;;;;;;1.25;0.63;;;14.90;51.90;;;;;;6229411;28;20542;-75
2021/04/11 04:28:02;;;;;;;0.70;0.70;;;14.90;51.90;;;;;;6248171;28;20038;-76
2021/04/11 04:31:10;;;;;;;0.45;0.40;;;14.90;51.90;;;;;;6210238;28;20099;-76
2021/04/11 04:34:34;;;;;;;3.80;0.85;;;14.90;51.90;;;;;;6208434;28;20176;-76
2021/04/11 04:37:52;;;;;;;2.28;0.70;;;14.80;51.80;;;;;;6225409;28;20469;-76
2021/04/11 04:41:08;;;;;;;2.60;0.90;;;14.90;51.80;;;;;;6192340;28;20041;-75
2021/04/11 04:44:29;;;;;;;1.67;1.00;;;14.90;51.80;;;;;;6208167;28;20048;-76
2021/04/11 04:47:37;;;;;;;5.30;0.90;;;14.90;51.80;;;;;;6227505;28;20037;-76
2021/04/11 04:50:53;;;;;;;2.65;1.58;;;14.80;51.70;;;;;;6232384;28;20037;-76
2021/04/11 04:54:06;;;;;;;9.38;2.10;;;14.80;52.30;;;;;;6232018;28;20038;-76
2021/04/11 04:57:28;;;;;;;11.43;2.22;;;14.60;52.60;;;;;;6232528;28;20368;-76
2021/04/11 05:00:36;;;;;;;12.57;2.25;;;14.50;53.10;;;;;;6248299;28;20045;-76
2021/04/11 05:03:50;;;;;;;9.63;1.98;;;14.30;53.40;;;;;;6230951;28;20033;-76
2021/04/11 05:07:05;;;;;;;2.10;1.55;;;14.20;53.70;;;;;;6223411;28;20029;-75
2021/04/11 05:10:16;;;;;;;4.20;1.67;;;14.10;53.90;;;;;;6249193;28;20372;-76
2021/04/11 05:13:25;;;;;;;4.10;1.88;;;14.00;53.90;;;;;;6231462;28;20356;-76
2021/04/11 05:16:41;;;;;;;4.38;1.85;;;14.00;54.00;;;;;;6231938;28;20364;-76
2021/04/11 05:19:49;;;;;;;5.32;2.25;;;13.90;54.00;;;;;;6231345;28;20057;-76
2021/04/11 05:23:19;;;;;;;5.63;2.20;;;13.90;54.30;;;;;;6233157;28;20033;-75
2021/04/11 05:26:38;;;;;;;5.75;2.08;;;13.80;54.70;;;;;;6230340;28;20407;-76
2021/04/11 05:29:50;;;;;;;6.20;2.42;;;13.70;54.80;;;;;;6215636;28;20057;-76
2021/04/11 05:32:53;;;;;;;5.25;1.75;;;13.60;55.10;;;;;;6231249;28;20376;-76
2021/04/11 05:36:02;;;;;;;7.57;1.80;;;13.60;55.30;;;;;;6231218;28;20037;-76
2021/04/11 05:39:14;;;;;;;8.88;2.40;;;13.60;55.30;;;;;;6229662;28;20038;-76
2021/04/11 05:42:47;;;;;;;4.65;2.20;;;13.50;55.10;;;;;;6248671;28;20037;-75
2021/04/11 05:46:03;;;;;;;9.77;2.08;;;13.60;55.20;;;;;;6069966;29;20039;-76
2021/04/11 05:49:29;;;;;;;5.68;2.75;;;13.60;55.20;;;;;;6112774;29;20054;-75
2021/04/11 05:52:35;;;;;;;5.28;2.60;;;13.60;55.20;;;;;;6108088;29;20114;-76
2021/04/11 05:55:41;;;;;;;7.68;2.33;;;13.60;55.10;;;;;;6124527;29;20048;-76
2021/04/11 05:58:53;;;;;;;4.43;2.08;;;13.70;55.10;;;;;;6124030;29;20341;-75
2021/04/11 06:01:56;;;;;;;7.43;1.85;;;13.70;55.10;;;;;;6108404;29;20375;-75
2021/04/11 06:05:03;;;;;;;9.98;2.30;;;13.70;55.00;;;;;;6110666;29;20043;-75
2021/04/11 06:08:29;;;;;;;7.40;2.47;;;13.80;54.90;;;;;;6110691;29;20036;-75
2021/04/11 06:11:43;;;;;;;9.15;2.30;;;13.80;54.80;;;;;;6125687;29;20130;-76
2021/04/11 06:15:15;;;;;;;5.95;1.85;;;13.90;54.80;;;;;;6117646;29;20112;-77
2021/04/11 06:18:16;;;;;;;8.27;2.80;;;13.90;54.80;;;;;;6083481;29;20028;-77
2021/04/11 06:21:28;;;;;;;4.22;2.65;;;14.00;54.80;;;;;;6153710;28;20038;-76
2021/04/11 06:24:44;;;;;;;3.38;2.28;;;14.00;54.80;;;;;;6246313;28;20037;-76
2021/04/11 06:28:09;;;;;;;4.88;2.10;;;14.10;54.80;;;;;;6229238;28;20021;-76
2021/04/11 06:31:15;;;;;;;5.80;2.45;;;14.20;54.60;;;;;;6247295;28;20033;-76
2021/04/11 06:34:23;;;;;;;3.42;1.83;;;14.30;54.40;;;;;;6230749;28;20076;-75
2021/04/11 06:37:24;;;;;;;5.47;2.60;;;14.40;54.20;;;;;;6246536;28;20033;-75
2021/04/11 06:40:45;;;;;;;4.50;2.10;;;14.50;54.00;;;;;;6246920;28;20434;-76
2021/04/11 06:44:07;;;;;;;4.90;2.38;;;14.70;53.70;;;;;;6215201;28;20045;-79
2021/04/11 06:47:11;;;;;;;3.45;1.95;;;14.60;53.50;;;;;;6211294;28;20041;-76
2021/04/11 06:50:40;;;;;;;5.72;2.55;;;15.00;53.40;;;;;;6213825;28;20037;-77
2021/04/11 06:53:55;;;;;;;4.82;1.73;;;15.00;53.40;;;;;;6236257;28;20436;-76
2021/04/11 06:57:15;;;;;;;3.03;2.03;;;15.20;53.30;;;;;;6243291;28;20033;-76
2021/04/11 07:00:26;;;;;;;2.80;1.60;;;15.20;53.60;;;;;;6228624;28;20037;-76
2021/04/11 07:03:31;;;;;;;7.18;2.72;;;15.40;52.80;;;;;;6217395;28;20041;-77
2021/04/11 07:07:07;;;;;;;6.00;1.50;;;15.40;52.70;;;;;;6227924;28;20037;-76
2021/04/11 07:10:24;;;;;;;3.58;1.48;;;15.50;52.60;;;;;;6216864;28;20056;-76
2021/04/11 07:13:58;;;;;;;6.97;1.38;;;15.70;52.40;;;;;;6243728;28;20448;-76
2021/04/11 07:17:26;;;;;;;1.98;1.40;;;15.80;52.10;;;;;;6240782;28;20171;-76
2021/04/11 07:20:30;;;;;;;2.03;1.30;;;16.00;51.70;;;;;;6237090;28;20037;-77
2021/04/11 07:23:40;;;;;;;2.38;1.52;;;16.00;51.40;;;;;;6241456;28;20124;-77
2021/04/11 07:26:51;;;;;;;2.65;1.25;;;16.10;51.40;;;;;;6223350;28;20041;-77
2021/04/11 07:30:09;;;;;;;3.88;1.20;;;16.10;51.10;;;;;;6218245;28;20049;-77
2021/04/11 07:33:34;;;;;;;4.38;1.35;;;16.20;50.80;;;;;;6203856;28;20330;-79
2021/04/11 07:37:27;;;;;;;2.42;1.40;;;16.20;50.60;;;;;;6209738;28;20460;-79
2021/04/11 07:40:42;;;;;;;2.20;1.20;;;16.20;50.50;;;;;;6091315;29;20429;-80
2021/04/11 07:44:07;;;;;;;2.05;1.10;;;16.30;50.20;;;;;;6099899;29;20080;-78
2021/04/11 07:47:22;;;;;;;1.90;1.00;;;16.50;50.10;;;;;;6121696;29;20062;-77
2021/04/11 07:50:42;;;;;;;0.98;0.80;;;16.60;49.60;;;;;;6105383;29;20123;-79
2021/04/11 07:54:07;;;;;;;1.23;0.70;;;16.80;49.40;;;;;;6101369;29;20409;-78
2021/04/11 07:57:33;;;;;;;0.85;0.75;;;16.90;49.00;;;;;;6099742;29;20040;-79
2021/04/11 08:00:59;;;;;;;3.40;0.95;;;17.10;48.60;;;;;;6109463;29;20047;-80
2021/04/11 08:04:06;;;;;;;1.13;0.70;;;17.30;48.00;;;;;;6115090;29;20132;-79
2021/04/11 08:07:34;;;;;;;2.17;0.50;;;17.40;47.60;;;;;;6094173;29;20519;-77
2021/04/11 08:11:12;;;;;;;0.40;0.40;;;17.70;47.40;;;;;;6112936;28;20047;-76
2021/04/11 08:14:41;;;;;;;1.10;0.80;;;17.80;46.80;;;;;;6116491;29;20043;-77
2021/04/11 08:18:12;;;;;;;0.30;0.25;;;18.00;46.40;;;;;;6192314;28;20069;-77
2021/04/11 08:21:31;;;;;;;0.68;0.43;;;18.20;46.00;;;;;;6229396;28;20033;-76
2021/04/11 08:25:02;;;;;;;0.25;0.25;;;18.40;45.60;;;;;;6172409;28;20461;-77
2021/04/11 08:28:27;;;;;;;0.52;0.30;;;18.50;45.10;;;;;;6222401;28;20057;-77
2021/04/11 08:31:45;;;;;;;0.47;0.35;;;18.70;44.80;;;;;;6215648;28;20041;-77
2021/04/11 08:35:14;;;;;;;1.23;0.30;;;18.90;44.30;;;;;;6240880;28;20459;-77
2021/04/11 08:38:31;;;;;;;0.93;0.57;;;19.00;44.00;;;;;;6208065;28;20451;-76
2021/04/11 08:42:00;;;;;;;0.82;0.50;;;19.10;43.30;;;;;;6243071;28;20508;-76
2021/04/11 08:45:38;;;;;;;0.40;0.30;;;19.30;42.90;;;;;;6226923;28;20372;-76
2021/04/11 08:49:04;;;;;;;0.83;0.20;;;19.30;42.70;;;;;;6221363;28;20121;-77
2021/04/11 08:52:27;;;;;;;4.45;0.60;;;19.40;42.40;;;;;;6227226;28;20052;-76
2021/04/11 08:55:46;;;;;;;0.73;0.50;;;19.50;42.30;;;;;;6226223;28;20080;-76
2021/04/11 08:59:21;;;;;;;0.70;0.50;;;19.60;42.00;;;;;;6244747;28;20467;-76
2021/04/11 09:02:28;;;;;;;0.40;0.25;;;19.80;41.90;;;;;;6111552;29;20083;-77
2021/04/11 09:06:01;;;;;;;0.50;0.50;;;19.90;41.60;;;;;;6122021;29;20454;-76
2021/04/11 09:09:26;;;;;;;0.63;0.47;;;20.00;41.00;;;;;;6120201;29;20040;-77
2021/04/11 09:13:04;;;;;;;1.58;0.77;;;20.10;40.70;;;;;;6121501;29;20052;-77
2021/04/11 09:16:16;;;;;;;2.53;0.90;;;20.10;40.90;;;;;;6123899;29;20062;-76
2021/04/11 09:19:27;;;;;;;0.28;0.28;;;20.20;40.80;;;;;;6124744;29;20114;-76
2021/04/11 09:23:02;;;;;;;0.60;0.30;;;20.40;40.50;;;;;;6122952;29;20039;-77
2021/04/11 09:26:22;;;;;;;1.13;0.40;;;20.50;40.20;;;;;;6130372;29;20486;-76
2021/04/11 09:29:54;;;;;;;0.40;0.35;;;20.60;39.60;;;;;;6133336;29;20047;-78
2021/04/11 09:33:33;;;;;;;0.28;0.20;;;20.60;39.10;;;;;;6125136;29;20130;-77
2021/04/11 09:36:37;;;;;;;1.20;0.70;;;20.50;39.00;;;;;;6111859;29;20035;-78
2021/04/11 09:39:57;;;;;;;0.30;0.30;;;20.50;39.10;;;;;;6204767;28;20353;-78
2021/04/11 09:43:25;;;;;;;1.40;0.68;;;20.50;39.30;;;;;;6253921;28;20037;-78
2021/04/11 09:46:56;;;;;;;2.70;0.60;;;20.60;39.60;;;;;;6247403;28;20041;-77
2021/04/11 09:50:00;;;;;;;1.15;0.75;;;20.60;39.80;;;;;;6243605;28;20057;-78
2021/04/11 09:53:40;;;;;;;4.03;1.20;;;20.70;39.90;;;;;;6246035;28;20116;-78
2021/04/11 09:57:25;;;;;;;2.75;0.73;;;20.70;39.90;;;;;;6247170;28;20388;-78
2021/04/11 10:01:11;;;;;;;2.90;0.80;;;20.60;39.50;;;;;;6230507;28;20506;-78
2021/04/11 10:04:26;;;;;;;1.35;0.70;;;20.80;39.60;;;;;;6176471;28;20040;-78
2021/04/11 10:07:59;;;;;;;0.52;0.50;;;20.70;39.50;;;;;;6228359;28;20029;-77
2021/04/11 10:11:08;;;;;;;0.50;0.50;;;20.80;39.40;;;;;;6218434;28;20060;-76
2021/04/11 10:14:49;;;;;;;0.73;0.52;;;20.90;39.20;;;;;;6228151;28;20103;-76
2021/04/11 10:18:14;;;;;;;0.50;0.43;;;21.00;39.00;;;;;;6145708;28;20371;-77
2021/04/11 10:21:26;;;;;;;0.60;0.43;;;21.10;38.70;;;;;;6124761;29;20383;-77
2021/04/11 10:25:04;;;;;;;0.40;0.30;;;21.20;38.40;;;;;;6105966;28;20058;-77
2021/04/11 10:28:29;;;;;;;2.65;0.40;;;21.30;37.90;;;;;;6090655;29;20447;-77
2021/04/11 10:31:33;;;;;;;0.68;0.50;;;21.50;37.20;;;;;;6118738;29;20048;-77
2021/04/11 10:34:55;;;;;;;1.45;0.30;;;21.60;37.00;;;;;;6123169;29;20051;-77
2021/04/11 10:38:10;;;;;;;1.05;0.70;;;21.70;37.10;;;;;;6123981;29;20055;-78
2021/04/11 10:41:25;;;;;;;3.70;0.73;;;21.80;36.80;;;;;;6131874;29;20102;-75
2021/04/11 10:44:47;;;;;;;2.10;0.80;;;22.00;36.50;;;;;;6149041;28;20096;-79
2021/04/11 10:48:10;;;;;;;0.77;0.40;;;22.50;35.90;;;;;;6178935;28;20041;-78
2021/04/11 10:51:21;;;;;;;2.33;0.65;;;23.10;35.10;;;;;;6211926;28;20042;-78
2021/04/11 10:54:37;;;;;;;1.92;0.70;;;23.60;34.20;;;;;;6232258;28;20047;-78
2021/04/11 10:57:41;;;;;;;0.95;0.73;;;23.90;33.50;;;;;;6244801;28;20045;-79
2021/04/11 11:01:04;;;;;;;2.33;0.60;;;24.10;33.40;;;;;;6242383;28;20456;-78
2021/04/11 11:04:43;;;;;;;0.50;0.50;;;24.00;32.80;;;;;;6194770;28;20045;-77
2021/04/11 11:08:03;;;;;;;0.70;0.38;;;24.20;32.50;;;;;;6202724;28;20052;-76
2021/04/11 11:11:47;;;;;;;1.45;0.65;;;24.70;32.10;;;;;;6208711;28;20069;-75
2021/04/11 11:15:09;;;;;;;0.40;0.40;;;25.00;31.00;;;;;;6202527;28;20044;-77
2021/04/11 11:18:25;;;;;;;0.82;0.55;;;25.30;30.30;;;;;;6228423;28;20120;-76
2021/04/11 11:21:46;;;;;;;1.80;0.40;;;25.50;30.10;;;;;;6245916;28;20072;-77
2021/04/11 11:25:02;;;;;;;1.50;0.57;;;25.60;30.10;;;;;;6227141;28;20037;-77
2021/04/11 11:28:24;;;;;;;1.35;0.60;;;25.60;30.00;;;;;;6209967;28;20036;-77
2021/04/11 11:31:44;;;;;;;2.00;0.60;;;25.70;30.10;;;;;;6219397;28;20469;-77
2021/04/11 11:34:50;;;;;;;1.38;0.35;;;25.80;30.10;;;;;;6210334;28;20076;-77
2021/04/11 11:38:07;;;;;;;1.55;0.60;;;25.80;30.30;;;;;;6187164;28;20034;-76
2021/04/11 11:41:29;;;;;;;0.73;0.60;;;25.90;30.30;;;;;;6210863;28;20112;-78
2021/04/11 11:44:37;;;;;;;0.43;0.35;;;26.10;30.10;;;;;;6210796;28;20045;-77
2021/04/11 11:48:06;;;;;;;0.43;0.40;;;26.40;30.00;;;;;;6209547;28;20046;-79
2021/04/11 11:51:18;;;;;;;1.13;0.77;;;26.40;29.90;;;;;;6218991;28;20037;-79
2021/04/11 11:54:42;;;;;;;0.50;0.40;;;26.50;29.90;;;;;;6242745;28;20116;-81
2021/04/11 11:57:55;;;;;;;2.13;0.45;;;26.60;29.90;;;;;;6245932;28;20356;-79
2021/04/11 12:01:05;;;;;;;1.38;0.30;;;26.80;29.60;;;;;;6243947;28;20413;-82
2021/04/11 12:04:24;;;;;;;0.25;0.20;;;27.00;29.30;;;;;;6216665;28;20183;-82
2021/04/11 12:07:39;;;;;;;1.00;0.50;;;27.30;29.10;;;;;;6228378;28;20105;-80
2021/04/11 12:10:56;;;;;;;0.75;0.38;;;27.50;28.80;;;;;;6244195;28;20056;-79
2021/04/11 12:14:24;;;;;;;0.32;0.32;;;27.70;28.40;;;;;;6226727;28;20033;-78
2021/04/11 12:17:48;;;;;;;1.75;0.65;;;28.00;28.20;;;;;;6245194;28;20045;-80
2021/04/11 12:21:10;;;;;;;0.70;0.30;;;28.30;28.10;;;;;;6213304;28;20030;-79
2021/04/11 12:24:29;;;;;;;0.70;0.45;;;28.60;27.70;;;;;;6242859;28;20044;-80
2021/04/11 12:27:35;;;;;;;1.85;0.40;;;28.40;27.10;;;;;;6246080;28;20045;-79
2021/04/11 12:30:39;;;;;;;0.70;0.30;;;28.00;27.50;;;;;;6214019;28;20411;-81
2021/04/11 12:33:57;;;;;;;0.30;0.30;;;28.20;27.60;;;;;;6235336;28;20114;-84
2021/04/11 12:37:20;;;;;;;1.02;0.65;;;28.60;27.30;;;;;;6247905;28;20372;-80
2021/04/11 12:41:06;;;;;;;0.65;0.32;;;29.20;26.90;;;;;;6234811;28;20048;-82
2021/04/11 12:44:43;;;;;;;0.90;0.47;;;29.80;26.30;;;;;;6112192;29;20051;-81
2021/04/11 12:48:05;;;;;;;0.50;0.45;;;30.20;25.50;;;;;;6111045;29;20051;-82
2021/04/11 12:51:30;;;;;;;0.40;0.40;;;30.70;25.00;;;;;;6130353;29;20032;-81
2021/04/11 12:54:39;;;;;;;1.05;0.30;;;31.20;24.60;;;;;;6127952;29;20048;-80
2021/04/11 12:58:13;;;;;;;0.40;0.30;;;31.90;24.20;;;;;;6128978;29;20040;-81
2021/04/11 13:01:14;;;;;;;0.80;0.30;;;32.70;23.20;;;;;;6096645;29;20063;-81
2021/04/11 13:04:40;;;;;;;0.93;0.47;;;32.80;22.80;;;;;;6113181;29;20050;-80
2021/04/11 13:07:51;;;;;;;3.35;0.60;;;31.60;23.70;;;;;;6128142;29;20055;-79
2021/04/11 13:11:23;;;;;;;2.70;0.57;;;31.00;24.40;;;;;;6141316;28;20122;-81
2021/04/11 13:14:52;;;;;;;0.55;0.40;;;31.30;24.20;;;;;;6105227;29;20540;-81
2021/04/11 13:18:11;;;;;;;1.05;0.35;;;31.30;24.00;;;;;;6140930;28;20035;-81
2021/04/11 13:21:31;;;;;;;3.55;0.60;;;31.50;23.90;;;;;;6133567;28;20042;-82
2021/04/11 13:24:45;;;;;;;1.33;0.60;;;31.00;24.20;;;;;;6143147;28;20146;-80
2021/04/11 13:28:05;;;;;;;0.63;0.50;;;29.90;25.10;;;;;;6149895;28;20058;-81
2021/04/11 13:31:14;;;;;;;1.38;0.40;;;29.10;26.20;;;;;;6141125;28;20047;-80
2021/04/11 13:34:54;;;;;;;2.97;0.50;;;28.50;26.70;;;;;;6169867;28;20046;-80
2021/04/11 13:38:01;;;;;;;1.40;0.60;;;28.20;27.30;;;;;;6161306;28;20041;-82
2021/04/11 13:41:26;;;;;;;0.35;0.35;;;27.90;27.50;;;;;;6142454;28;20035;-82
2021/04/11 13:44:59;;;;;;;0.73;0.40;;;27.20;28.30;;;;;;6109876;29;20231;-82
2021/04/11 13:48:18;;;;;;;0.68;0.38;;;26.50;29.20;;;;;;6142434;28;20045;-82
2021/04/11 13:51:47;;;;;;;1.05;0.50;;;26.00;29.90;;;;;;6219084;28;20030;-83
2021/04/11 13:55:04;;;;;;;0.43;0.32;;;25.50;30.70;;;;;;6213946;28;20456;-80
2021/04/11 13:58:15;;;;;;;1.08;0.57;;;25.40;31.00;;;;;;6214891;28;20466;-81
2021/04/11 14:01:24;;;;;;;0.43;0.40;;;25.30;31.40;;;;;;6228720;28;20030;-83
2021/04/11 14:04:59;;;;;;;3.50;0.60;;;24.90;32.00;;;;;;6233547;28;20049;-82
2021/04/11 14:08:10;;;;;;;0.57;0.32;;;24.50;32.70;;;;;;6249484;28;20034;-83
2021/04/11 14:11:25;;;;;;;0.20;0.20;;;24.30;33.30;;;;;;6249744;28;20403;-83
2021/04/11 14:14:31;;;;;;;1.00;0.40;;;24.10;34.10;;;;;;6255583;28;20463;-82
2021/04/11 14:17:39;;;;;;;0.77;0.50;;;23.70;34.70;;;;;;6230770;28;20361;-82
2021/04/11 14:20:54;;;;;;;7.00;0.68;;;23.50;35.30;;;;;;6247266;28;20356;-81
2021/04/11 14:24:07;;;;;;;1.67;0.40;;;23.30;35.70;;;;;;6247543;28;20029;-81
2021/04/11 14:27:23;;;;;;;0.60;0.43;;;23.30;35.90;;;;;;6242025;28;20560;-81
2021/04/11 14:30:55;;;;;;;2.25;0.70;;;23.10;35.80;;;;;;6263999;28;20479;-81
2021/04/11 14:34:09;;;;;;;0.98;0.50;;;23.00;36.70;;;;;;6220981;28;20041;-82
2021/04/11 14:37:57;;;;;;;1.70;0.60;;;22.70;37.20;;;;;;6162355;28;20043;-82
2021/04/11 14:41:18;;;;;;;1.52;0.80;;;22.50;37.60;;;;;;6237975;28;20176;-82
2021/04/11 14:44:37;;;;;;;5.57;0.50;;;22.30;38.40;;;;;;6246151;28;20056;-80
2021/04/11 14:47:47;;;;;;;0.77;0.57;;;22.20;38.80;;;;;;6260315;28;20059;-81
2021/04/11 14:50:50;;;;;;;0.40;0.40;;;22.10;38.90;;;;;;6239875;28;20049;-81
2021/04/11 14:54:07;;;;;;;2.85;0.52;;;22.00;39.00;;;;;;6227443;28;20167;-82
2021/04/11 14:57:37;;;;;;;0.85;0.63;;;21.90;39.00;;;;;;6245909;28;20033;-82
2021/04/11 15:00:53;;;;;;;1.02;0.70;;;21.90;39.00;;;;;;6179708;28;20186;-80
2021/04/11 15:04:22;;;;;;;1.73;0.68;;;21.90;39.80;;;;;;6179411;28;20057;-81
2021/04/11 15:07:44;;;;;;;1.27;0.80;;;21.90;39.30;;;;;;6195670;28;20034;-81
2021/04/11 15:10:57;;;;;;;1.23;0.63;;;21.80;39.30;;;;;;6183143;28;20130;-81
2021/04/11 15:14:23;;;;;;;2.92;0.63;;;21.90;39.50;;;;;;6194585;28;20501;-81
2021/04/11 15:18:00;;;;;;;1.48;0.75;;;21.80;39.90;;;;;;6158462;28;20112;-81
2021/04/11 15:21:22;;;;;;;1.45;0.80;;;21.70;40.30;;;;;;6194719;28;20064;-81
2021/04/11 15:24:26;;;;;;;4.97;1.35;;;21.70;40.70;;;;;;6192626;28;20038;-80
2021/04/11 15:27:45;;;;;;;0.60;0.60;;;21.60;41.00;;;;;;6181250;28;20326;-80
2021/04/11 15:30:56;;;;;;;1.30;0.68;;;21.60;40.90;;;;;;6185946;28;20050;-80
2021/04/11 15:33:59;;;;;;;0.75;0.73;;;21.60;40.80;;;;;;6172358;28;20050;-79
2021/04/11 15:37:32;;;;;;;1.48;0.77;;;21.60;41.00;;;;;;6226201;28;20048;-80
2021/04/11 15:40:35;;;;;;;4.28;0.88;;;21.50;41.00;;;;;;6245708;28;20338;-80
2021/04/11 15:43:41;;;;;;;2.00;0.85;;;21.50;41.10;;;;;;6246313;28;20461;-80
2021/04/11 15:47:01;;;;;;;0.50;0.50;;;21.40;41.40;;;;;;6249089;28;20052;-80
2021/04/11 15:50:14;;;;;;;1.13;0.93;;;21.20;42.20;;;;;;6249064;28;20041;-79
2021/04/11 15:53:38;;;;;;;1.10;0.80;;;21.00;42.90;;;;;;6251066;28;20081;-80
2021/04/11 15:56:59;;;;;;;2.85;0.80;;;21.00;43.10;;;;;;6251002;28;20025;-81
2021/04/11 16:00:17;;;;;;;1.88;1.10;;;21.00;42.80;;;;;;6251421;28;20368;-80
2021/04/11 16:03:32;;;;;;;7.50;0.85;;;21.10;42.70;;;;;;6267753;28;20199;-81
2021/04/11 16:06:41;;;;;;;1.52;0.65;;;21.10;42.30;;;;;;6238044;28;20037;-81
2021/04/11 16:09:43;;;;;;;1.75;0.70;;;21.30;42.10;;;;;;6246359;28;20076;-81
2021/04/11 16:13:03;;;;;;;3.88;1.30;;;21.30;42.00;;;;;;6236355;28;20095;-82
2021/04/11 16:16:41;;;;;;;1.35;1.10;;;21.30;41.90;;;;;;6235862;28;20068;-83
2021/04/11 16:20:26;;;;;;;3.28;0.68;;;21.40;41.90;;;;;;6250738;28;20033;-81
2021/04/11 16:23:33;;;;;;;1.75;0.90;;;21.40;41.70;;;;;;6155095;28;20043;-80
2021/04/11 16:26:42;;;;;;;5.07;1.60;;;21.40;41.70;;;;;;6177019;28;20070;-82
2021/04/11 16:30:12;;;;;;;2.92;1.00;;;21.40;41.60;;;;;;6187889;28;20548;-81
2021/04/11 16:33:13;;;;;;;;;;;21.40;41.50;;;;;;6169008;28;20109;-80
2021/04/11 16:36:39;;;;;;;6.35;0.90;;;21.40;41.70;;;;;;6168117;28;20349;-80
2021/04/11 16:39:57;;;;;;;2.60;1.10;;;21.40;42.00;;;;;;6183795;28;20038;-80
2021/04/11 16:43:27;;;;;;;1.67;1.10;;;21.30;42.20;;;;;;6151836;28;20162;-80
2021/04/11 16:46:36;;;;;;;1.25;0.77;;;21.10;42.30;;;;;;6074327;29;20055;-80
2021/04/11 16:49:57;;;;;;;3.38;0.90;;;21.20;42.20;;;;;;6089394;29;20044;-80
2021/04/11 16:53:01;;;;;;;3.78;1.00;;;21.10;42.50;;;;;;6087540;29;20047;-80
2021/04/11 16:56:10;;;;;;;1.13;0.88;;;21.00;42.80;;;;;;6136415;29;20062;-81
2021/04/11 16:59:18;;;;;;;2.85;1.10;;;21.00;42.90;;;;;;6120745;29;20031;-80
2021/04/11 17:02:58;;;;;;;1.00;0.90;;;20.90;42.90;;;;;;6155049;28;20023;-79
2021/04/11 17:06:08;;;;;;;1.88;1.00;;;20.90;43.10;;;;;;6104883;29;20451;-80